Time,TemperatureF,DewpointF,PressureIn,WindDirection,WindDirectionDegrees,WindSpeedMPH,WindSpeedGustMPH,Humidity,HourlyPrecipIn,Conditions,Clouds,dailyrainin,SoftwareType,DateUTC
2013-03-22 00:02:00,16.0,12.0,-100.00,NE,45,2.0,3.0,85,0.00,,,0.00,,2013-03-22 05:02:00,
2013-03-22 00:22:00,16.0,12.0,-100.00,NE,45,2.0,3.0,84,0.00,,,0.00,,2013-03-22 05:22:00,
2013-03-22 00:32:00,16.0,12.0,-100.00,NE,40,2.0,3.0,85,0.00,,,0.00,,2013-03-22 05:32:00,
2013-03-22 00:42:00,16.0,12.0,-100.00,NE,45,3.0,3.0,85,0.00,,,0.00,,2013-03-22 05:42:00,
2013-03-22 00:52:00,16.0,12.0,-100.00,NE,45,4.0,4.0,85,0.00,,,0.00,,2013-03-22 05:52:00,
2013-03-22 01:02:00,16.0,12.0,-100.00,NE,55,4.0,5.0,85,0.00,,,0.00,,2013-03-22 06:02:00,
2013-03-22 01:12:00,16.0,12.0,-100.00,NE,45,3.0,5.0,85,0.00,,,0.00,,2013-03-22 06:12:00,
2013-03-22 01:22:00,15.0,12.0,-100.00,NE,45,4.0,5.0,85,0.00,,,0.00,,2013-03-22 06:22:00,
2013-03-22 01:32:00,15.0,12.0,-100.00,NE,45,6.0,6.0,85,0.00,,,0.00,,2013-03-22 06:32:00,
2013-03-22 01:42:00,15.0,12.0,-100.00,NE,50,4.0,6.0,86,0.00,,,0.00,,2013-03-22 06:42:00,
2013-03-22 01:52:00,15.0,12.0,-100.00,NE,50,4.0,4.0,86,0.00,,,0.00,,2013-03-22 06:52:00,
2013-03-22 02:02:00,15.0,12.0,-100.00,NE,45,2.0,4.0,86,0.00,,,0.00,,2013-03-22 07:02:00,
2013-03-22 02:12:00,15.0,12.0,-100.00,NE,45,2.0,2.0,86,0.00,,,0.00,,2013-03-22 07:12:00,
2013-03-22 02:22:00,15.0,12.0,-100.00,NE,50,2.0,2.0,85,0.00,,,0.00,,2013-03-22 07:22:00,
2013-03-22 02:32:00,15.0,12.0,-100.00,NE,45,2.0,2.0,84,0.00,,,0.00,,2013-03-22 07:32:00,
2013-03-22 02:42:00,15.0,12.0,-100.00,NE,50,2.0,2.0,83,0.00,,,0.00,,2013-03-22 07:42:00,
2013-03-22 02:52:00,15.0,10.0,-100.00,NE,40,2.0,2.0,83,0.00,,,0.00,,2013-03-22 07:52:00,
2013-03-22 03:02:00,15.0,10.0,-100.00,NNE,25,1.0,2.0,83,0.00,,,0.00,,2013-03-22 08:02:00,
2013-03-22 03:12:00,15.0,10.0,-100.00,NNE,25,2.0,2.0,83,0.00,,,0.00,,2013-03-22 08:12:00,
2013-03-22 03:22:00,15.0,10.0,-100.00,North,5,1.0,2.0,83,0.00,,,0.00,,2013-03-22 08:22:00,
2013-03-22 03:32:00,15.0,10.0,-100.00,North,355,2.0,2.0,84,0.00,,,0.00,,2013-03-22 08:32:00,
2013-03-22 03:42:00,15.0,10.0,-100.00,North,355,2.0,3.0,85,0.00,,,0.00,,2013-03-22 08:42:00,
2013-03-22 03:52:00,15.0,10.0,-100.00,NNW,345,3.0,4.0,86,0.00,,,0.00,,2013-03-22 08:52:00,
2013-03-22 04:02:00,14.0,10.0,-100.00,NNW,345,2.0,3.0,87,0.00,,,0.00,,2013-03-22 09:02:00,
2013-03-22 04:12:00,14.0,10.0,-100.00,NW,325,2.0,3.0,88,0.00,,,0.00,,2013-03-22 09:12:00,
2013-03-22 04:22:00,13.0,10.0,-100.00,NW,305,2.0,3.0,89,0.00,,,0.00,,2013-03-22 09:22:00,
2013-03-22 04:32:00,13.0,10.0,-100.00,North,350,1.0,2.0,90,0.00,,,0.00,,2013-03-22 09:32:00,
2013-03-22 04:42:00,13.0,10.0,-100.00,North,10,2.0,3.0,90,0.00,,,0.00,,2013-03-22 09:42:00,
2013-03-22 04:52:00,14.0,10.0,-100.00,North,0,2.0,2.0,89,0.00,,,0.00,,2013-03-22 09:52:00,
2013-03-22 05:02:00,13.0,10.0,-100.00,North,5,2.0,3.0,88,0.00,,,0.00,,2013-03-22 10:02:00,
2013-03-22 05:12:00,14.0,10.0,-100.00,NNE,15,4.0,4.0,88,0.00,,,0.00,,2013-03-22 10:12:00,
2013-03-22 05:22:00,14.0,10.0,-100.00,North,5,3.0,4.0,87,0.00,,,0.00,,2013-03-22 10:22:00,
2013-03-22 05:32:00,13.0,10.0,-100.00,North,355,3.0,4.0,88,0.00,,,0.00,,2013-03-22 10:32:00,
2013-03-22 05:42:00,13.0,10.0,-100.00,North,355,4.0,4.0,89,0.00,,,0.00,,2013-03-22 10:42:00,
2013-03-22 05:52:00,13.0,10.0,-100.00,North,0,4.0,5.0,91,0.00,,,0.00,,2013-03-22 10:52:00,
2013-03-22 06:02:00,12.0,10.0,-100.00,North,5,4.0,5.0,91,0.00,,,0.00,,2013-03-22 11:02:00,
2013-03-22 06:22:00,12.0,10.0,-100.00,North,5,3.0,4.0,91,0.00,,,0.00,,2013-03-22 11:22:00,
2013-03-22 06:32:00,13.0,10.0,-100.00,North,355,3.0,4.0,91,0.00,,,0.00,,2013-03-22 11:32:00,
2013-03-22 06:42:00,12.0,10.0,-100.00,North,350,2.0,3.0,91,0.00,,,0.00,,2013-03-22 11:42:00,
2013-03-22 06:52:00,13.0,10.0,-100.00,North,5,3.0,3.0,88,0.00,,,0.00,,2013-03-22 11:52:00,
2013-03-22 07:02:00,14.0,10.0,-100.00,NNE,15,3.0,4.0,86,0.00,,,0.00,,2013-03-22 12:02:00,
2013-03-22 07:12:00,14.0,10.0,-100.00,North,10,2.0,4.0,86,0.00,,,0.00,,2013-03-22 12:12:00,
2013-03-22 07:22:00,14.0,10.0,-100.00,NNE,30,2.0,4.0,84,0.00,,,0.00,,2013-03-22 12:22:00,
2013-03-22 07:32:00,15.0,10.0,-100.00,NNE,15,4.0,4.0,83,0.00,,,0.00,,2013-03-22 12:32:00,
2013-03-22 07:42:00,15.0,10.0,-100.00,NNE,30,3.0,4.0,82,0.00,,,0.00,,2013-03-22 12:42:00,
2013-03-22 07:52:00,15.0,10.0,-100.00,NNE,15,3.0,4.0,81,0.00,,,0.00,,2013-03-22 12:52:00,
2013-03-22 08:02:00,16.0,10.0,-100.00,NNE,25,4.0,4.0,81,0.00,,,0.00,,2013-03-22 13:02:00,
2013-03-22 08:22:00,16.0,12.0,-100.00,NE,40,4.0,6.0,81,0.00,,,0.00,,2013-03-22 13:22:00,
2013-03-22 08:32:00,16.0,12.0,-100.00,NE,50,4.0,6.0,81,0.00,,,0.00,,2013-03-22 13:32:00,
2013-03-22 08:42:00,17.0,12.0,-100.00,NE,40,4.0,6.0,80,0.00,,,0.00,,2013-03-22 13:42:00,
2013-03-22 08:52:00,18.0,12.0,-100.00,NE,55,4.0,6.0,81,0.00,,,0.00,,2013-03-22 13:52:00,
2013-03-22 09:02:00,18.0,12.0,-100.00,ENE,60,4.0,6.0,79,0.00,,,0.00,,2013-03-22 14:02:00,
2013-03-22 09:12:00,19.0,12.0,-100.00,East,80,5.0,6.0,76,0.00,,,0.00,,2013-03-22 14:12:00,
2013-03-22 09:22:00,18.0,12.0,-100.00,NE,40,6.0,8.0,74,0.00,,,0.00,,2013-03-22 14:22:00,
2013-03-22 09:32:00,20.0,12.0,-100.00,ENE,70,4.0,7.0,74,0.00,,,0.00,,2013-03-22 14:32:00,
2013-03-22 09:42:00,22.0,14.0,-100.00,ESE,120,3.0,6.0,73,0.00,,,0.00,,2013-03-22 14:42:00,
2013-03-22 09:52:00,21.0,14.0,-100.00,ENE,60,4.0,6.0,72,0.00,,,0.00,,2013-03-22 14:52:00,
2013-03-22 10:02:00,21.0,12.0,-100.00,ENE,60,3.0,5.0,70,0.00,,,0.00,,2013-03-22 15:02:00,
2013-03-22 10:22:00,24.0,16.0,-100.00,ESE,110,1.0,4.0,70,0.00,,,0.00,,2013-03-22 15:22:00,
2013-03-22 10:32:00,23.0,14.0,-100.00,North,10,2.0,4.0,68,0.00,,,0.00,,2013-03-22 15:32:00,
2013-03-22 10:42:00,23.0,14.0,-100.00,ENE,65,1.0,4.0,68,0.00,,,0.00,,2013-03-22 15:42:00,
2013-03-22 10:52:00,26.0,16.0,-100.00,East,95,2.0,6.0,67,0.00,,,0.00,,2013-03-22 15:52:00,
2013-03-22 11:02:00,25.0,16.0,-100.00,NNE,20,0.0,6.0,67,0.00,,,0.00,,2013-03-22 16:02:00,
2013-03-22 11:12:00,25.0,16.0,-100.00,East,80,3.0,6.0,66,0.00,,,0.00,,2013-03-22 16:12:00,
2013-03-22 11:22:00,26.0,16.0,-100.00,East,95,3.0,7.0,64,0.00,,,0.00,,2013-03-22 16:22:00,
2013-03-22 11:32:00,25.0,14.0,-100.00,WSW,250,1.0,7.0,63,0.00,,,0.00,,2013-03-22 16:32:00,
2013-03-22 11:42:00,28.0,18.0,-100.00,ESE,120,3.0,6.0,63,0.00,,,0.00,,2013-03-22 16:42:00,
2013-03-22 11:52:00,29.0,18.0,-100.00,SE,125,3.0,6.0,64,0.00,,,0.00,,2013-03-22 16:52:00,
2013-03-22 12:02:00,26.0,14.0,-100.00,SSE,165,4.0,6.0,61,0.00,,,0.00,,2013-03-22 17:02:00,
2013-03-22 12:22:00,29.0,18.0,-100.00,SE,140,2.0,6.0,61,0.00,,,0.00,,2013-03-22 17:22:00,
2013-03-22 12:32:00,29.0,18.0,-100.00,East,100,1.0,5.0,63,0.00,,,0.00,,2013-03-22 17:32:00,
2013-03-22 12:42:00,30.0,19.0,-100.00,South,180,1.0,6.0,63,0.00,,,0.00,,2013-03-22 17:42:00,
2013-03-22 12:52:00,28.0,18.0,-100.00,ENE,75,1.0,6.0,63,0.00,,,0.00,,2013-03-22 17:52:00,
2013-03-22 13:02:00,29.0,19.0,-100.00,ESE,120,2.0,4.0,66,0.00,,,0.00,,2013-03-22 18:02:00,
2013-03-22 13:12:00,28.0,16.0,-100.00,NE,55,3.0,5.0,62,0.00,,,0.00,,2013-03-22 18:12:00,
2013-03-22 13:22:00,30.0,18.0,-100.00,East,100,3.0,5.0,61,0.00,,,0.00,,2013-03-22 18:22:00,
2013-03-22 13:32:00,30.0,19.0,-100.00,SE,145,3.0,6.0,65,0.00,,,0.00,,2013-03-22 18:32:00,
2013-03-22 13:42:00,30.0,18.0,-100.00,WSW,255,0.0,4.0,59,0.00,,,0.00,,2013-03-22 18:42:00,
2013-03-22 13:52:00,30.0,18.0,-100.00,SSW,210,1.0,1.0,58,0.00,,,0.00,,2013-03-22 18:52:00,
2013-03-22 14:02:00,30.0,18.0,-100.00,ENE,75,3.0,6.0,59,0.00,,,0.00,,2013-03-22 19:02:00,
2013-03-22 14:22:00,30.0,19.0,-100.00,NE,55,4.0,6.0,66,0.00,,,0.00,,2013-03-22 19:22:00,
2013-03-22 14:32:00,32.0,18.0,-100.00,East,100,1.0,4.0,56,0.00,,,0.00,,2013-03-22 19:32:00,
2013-03-22 14:42:00,29.0,18.0,-100.00,NE,40,4.0,6.0,62,0.00,,,0.00,,2013-03-22 19:42:00,
2013-03-22 14:52:00,31.0,19.0,-100.00,East,100,4.0,6.0,61,0.00,,,0.00,,2013-03-22 19:52:00,
2013-03-22 15:02:00,30.0,18.0,-100.00,ENE,75,4.0,5.0,60,0.00,,,0.00,,2013-03-22 20:02:00,
2013-03-22 15:12:00,32.0,19.0,-100.00,East,85,2.0,5.0,59,0.00,,,0.00,,2013-03-22 20:12:00,
2013-03-22 15:22:00,29.0,18.0,-100.00,NNE,30,3.0,4.0,60,0.00,,,0.00,,2013-03-22 20:22:00,
2013-03-22 15:32:00,30.0,18.0,-100.00,NNE,30,2.0,4.0,61,0.00,,,0.00,,2013-03-22 20:32:00,
2013-03-22 15:42:00,29.0,18.0,-100.00,NNE,25,2.0,4.0,61,0.00,,,0.00,,2013-03-22 20:42:00,
2013-03-22 15:52:00,30.0,19.0,-100.00,North,355,1.0,4.0,62,0.00,,,0.00,,2013-03-22 20:52:00,
2013-03-22 16:02:00,30.0,19.0,-100.00,NE,50,2.0,4.0,62,0.00,,,0.00,,2013-03-22 21:02:00,
2013-03-22 16:22:00,30.0,18.0,-100.00,North,5,1.0,2.0,61,0.00,,,0.00,,2013-03-22 21:22:00,
2013-03-22 16:32:00,30.0,19.0,-100.00,NE,40,2.0,4.0,63,0.00,,,0.00,,2013-03-22 21:32:00,
2013-03-22 16:42:00,28.0,21.0,-100.00,NNE,25,12.0,14.0,74,0.00,,,0.00,,2013-03-22 21:42:00,
2013-03-22 16:52:00,28.0,21.0,-100.00,NE,40,9.0,13.0,76,0.00,,,0.00,,2013-03-22 21:52:00,
2013-03-22 17:02:00,28.0,21.0,-100.00,NNE,25,7.0,12.0,77,0.00,,,0.00,,2013-03-22 22:02:00,
2013-03-22 17:12:00,27.0,21.0,-100.00,NE,40,9.0,12.0,78,0.00,,,0.00,,2013-03-22 22:12:00,
2013-03-22 17:22:00,27.0,21.0,-100.00,NNE,25,10.0,12.0,79,0.00,,,0.00,,2013-03-22 22:22:00,
2013-03-22 17:32:00,27.0,21.0,-100.00,NNE,30,9.0,13.0,80,0.00,,,0.00,,2013-03-22 22:32:00,
2013-03-22 17:42:00,26.0,21.0,-100.00,NE,40,10.0,14.0,80,0.00,,,0.00,,2013-03-22 22:42:00,
2013-03-22 17:52:00,26.0,21.0,-100.00,NNE,30,11.0,13.0,79,0.00,,,0.00,,2013-03-22 22:52:00,
2013-03-22 18:02:00,26.0,19.0,-100.00,NNE,30,11.0,12.0,77,0.00,,,0.00,,2013-03-22 23:02:00,
2013-03-22 18:22:00,26.0,19.0,-100.00,NNE,20,9.0,13.0,74,0.00,,,0.00,,2013-03-22 23:22:00,
2013-03-22 18:32:00,26.0,19.0,-100.00,NNE,25,9.0,12.0,74,0.00,,,0.00,,2013-03-22 23:32:00,
2013-03-22 18:42:00,26.0,19.0,-100.00,NE,40,9.0,12.0,75,0.00,,,0.00,,2013-03-22 23:42:00,
2013-03-22 18:52:00,26.0,19.0,-100.00,NNE,30,9.0,13.0,74,0.00,,,0.00,,2013-03-22 23:52:00,
2013-03-22 19:02:00,26.0,18.0,-100.00,NE,35,10.0,11.0,73,0.00,,,0.00,,2013-03-23 00:02:00,
2013-03-22 19:12:00,26.0,19.0,-100.00,NNE,30,9.0,12.0,74,0.00,,,0.00,,2013-03-23 00:12:00,
2013-03-22 19:22:00,25.0,18.0,-100.00,NE,40,9.0,11.0,73,0.00,,,0.00,,2013-03-23 00:22:00,
2013-03-22 19:32:00,25.0,18.0,-100.00,NE,40,9.0,11.0,73,0.00,,,0.00,,2013-03-23 00:32:00,
2013-03-22 19:42:00,25.0,19.0,-100.00,NE,35,7.0,10.0,75,0.00,,,0.00,,2013-03-23 00:42:00,
2013-03-22 19:52:00,25.0,19.0,-100.00,NE,40,7.0,9.0,78,0.00,,,0.00,,2013-03-23 00:52:00,
2013-03-22 20:02:00,25.0,19.0,-100.00,NE,50,8.0,9.0,78,0.00,,,0.00,,2013-03-23 01:02:00,
2013-03-22 20:22:00,25.0,19.0,-100.00,NE,50,6.0,8.0,78,0.00,,,0.00,,2013-03-23 01:22:00,
2013-03-22 20:32:00,25.0,19.0,-100.00,NE,50,6.0,7.0,78,0.00,,,0.00,,2013-03-23 01:32:00,
2013-03-22 20:42:00,25.0,19.0,-100.00,NE,45,6.0,7.0,78,0.00,,,0.00,,2013-03-23 01:42:00,
2013-03-22 20:52:00,25.0,19.0,-100.00,NE,55,6.0,7.0,77,0.00,,,0.00,,2013-03-23 01:52:00,
2013-03-22 21:02:00,25.0,19.0,-100.00,NE,50,4.0,7.0,78,0.00,,,0.00,,2013-03-23 02:02:00,
2013-03-22 21:12:00,24.0,18.0,-100.00,NE,55,6.0,7.0,76,0.00,,,0.00,,2013-03-23 02:12:00,
2013-03-22 21:22:00,24.0,18.0,-100.00,NE,55,5.0,7.0,77,0.00,,,0.00,,2013-03-23 02:22:00,
2013-03-22 21:32:00,24.0,18.0,-100.00,ENE,60,3.0,6.0,77,0.00,,,0.00,,2013-03-23 02:32:00,
2013-03-22 21:42:00,24.0,18.0,-100.00,NE,55,2.0,3.0,77,0.00,,,0.00,,2013-03-23 02:42:00,
2013-03-22 21:52:00,24.0,18.0,-100.00,NE,45,2.0,2.0,77,0.00,,,0.00,,2013-03-23 02:52:00,
2013-03-22 22:02:00,24.0,18.0,-100.00,NE,55,2.0,2.0,77,0.00,,,0.00,,2013-03-23 03:02:00,
2013-03-22 22:22:00,24.0,19.0,-100.00,NE,50,3.0,4.0,80,0.00,,,0.00,,2013-03-23 03:22:00,
2013-03-22 22:32:00,24.0,19.0,-100.00,NE,45,2.0,4.0,82,0.00,,,0.00,,2013-03-23 03:32:00,
2013-03-22 22:42:00,23.0,19.0,-100.00,ENE,65,4.0,6.0,83,0.00,,,0.00,,2013-03-23 03:42:00,
2013-03-22 22:52:00,23.0,19.0,-100.00,ENE,65,4.0,5.0,83,0.00,,,0.00,,2013-03-23 03:52:00,
2013-03-22 23:02:00,23.0,19.0,-100.00,NE,55,1.0,3.0,83,0.00,,,0.00,,2013-03-23 04:02:00,
2013-03-22 23:12:00,23.0,19.0,-100.00,ENE,65,4.0,4.0,84,0.00,,,0.00,,2013-03-23 04:12:00,
2013-03-22 23:22:00,23.0,19.0,-100.00,ENE,75,4.0,6.0,84,0.00,,,0.00,,2013-03-23 04:22:00,
2013-03-22 23:32:00,23.0,19.0,-100.00,ENE,75,6.0,6.0,86,0.00,,,0.00,,2013-03-23 04:32:00,
2013-03-22 23:42:00,23.0,19.0,-100.00,ENE,70,4.0,7.0,86,0.00,,,0.00,,2013-03-23 04:42:00,
2013-03-22 23:52:00,23.0,19.0,-100.00,ENE,65,4.0,6.0,85,0.00,,,0.00,,2013-03-23 04:52:00,